createdAt,value
2024-01-08T10:29:23.516Z,101339.00
2024-01-08T10:31:50.269Z,101305.56
2024-01-08T10:34:16.975Z,101295.63
2024-01-08T10:36:43.712Z,101276.78
2024-01-08T10:39:11.332Z,101278.22
2024-01-08T10:41:38.028Z,101274.03
2024-01-08T10:44:05.016Z,101263.75
2024-01-08T10:46:32.905Z,101255.88
2024-01-08T10:48:59.667Z,101260.44
2024-01-08T10:51:26.492Z,101256.53
2024-01-08T10:53:55.030Z,101245.13
2024-01-08T10:56:21.903Z,101256.38
2024-01-08T10:58:48.739Z,101260.88
2024-01-08T11:01:15.397Z,101261.47
2024-01-08T11:03:42.151Z,101256.53
2024-01-08T15:28:34.356Z,101440.59
2024-01-08T15:31:03.995Z,101474.69
2024-01-08T15:36:12.230Z,101507.78
2024-01-08T15:38:38.967Z,101539.03
2024-01-08T15:41:06.392Z,101552.03
2024-01-08T15:43:33.160Z,101563.03
2024-01-08T15:45:59.802Z,101576.78
2024-01-08T15:48:26.618Z,101579.97
2024-01-08T15:50:53.393Z,101586.69
2024-01-08T15:53:23.252Z,101592.69
2024-01-08T15:55:49.981Z,101583.47
2024-01-08T15:58:16.677Z,101593.19
2024-01-08T16:00:44.377Z,101597.34
2024-01-08T16:03:12.259Z,101599.94
2024-01-08T16:05:39.089Z,101603.38
2024-01-08T16:08:06.024Z,101611.56
2024-01-08T16:10:32.762Z,101616.38
2024-01-08T16:12:59.426Z,101629.28
2024-01-08T16:15:26.083Z,101623.34
2024-01-08T16:17:52.825Z,101631.41
2024-01-08T16:20:22.576Z,101623.34
2024-01-08T16:22:49.407Z,101632.09
2024-01-08T16:25:16.198Z,101634.16
2024-01-08T16:27:42.976Z,101644.09
2024-01-08T16:30:09.696Z,101635.63
2024-01-08T16:32:36.554Z,101641.34
2024-01-08T16:35:04.381Z,101632.66
2024-01-08T16:37:31.181Z,101637.47
2024-01-08T16:39:57.865Z,101641.63
2024-01-08T16:42:24.645Z,101640.25
2024-01-08T16:44:51.618Z,101650.88
2024-01-08T16:47:21.899Z,101651.44
2024-01-08T16:49:48.906Z,101659.56
2024-01-08T16:52:15.726Z,101658.59
2024-01-08T16:54:42.450Z,101662.47
2024-01-08T16:57:09.400Z,101660.22
2024-01-08T16:59:36.157Z,101660.00
2024-01-08T17:02:03.525Z,101669.38
2024-01-08T17:04:30.276Z,101658.19
2024-01-08T17:06:57.351Z,101671.31
2024-01-08T17:09:26.437Z,101674.59
2024-01-08T17:11:53.337Z,101672.53
2024-01-08T17:14:20.106Z,101677.25
2024-01-08T17:16:46.825Z,101679.44
2024-01-08T17:19:13.942Z,101682.34
2024-01-08T17:21:40.970Z,101679.97
2024-01-08T17:24:07.617Z,101676.97
2024-01-08T17:26:34.638Z,101681.25
2024-01-08T17:29:01.389Z,101695.25
2024-01-08T17:31:28.169Z,101691.56
2024-01-08T17:33:56.937Z,101696.88
2024-01-08T17:36:24.418Z,101703.44
2024-01-08T17:38:51.138Z,101698.22
2024-01-08T17:41:17.825Z,101694.63
2024-01-08T17:43:46.542Z,101689.41
2024-01-08T17:46:13.249Z,101706.84
2024-01-08T17:48:40.063Z,101709.50
2024-01-08T17:51:07.461Z,101703.69
2024-01-08T17:56:17.732Z,101705.34
2024-01-08T17:58:44.549Z,101709.28
2024-01-08T18:01:11.370Z,101714.09
2024-01-08T18:03:38.141Z,101715.16
2024-01-08T18:06:05.232Z,101706.19
2024-01-08T18:08:34.157Z,101716.22
2024-01-08T18:11:00.978Z,101718.66
2024-01-08T18:13:27.774Z,101720.97
2024-01-08T18:15:54.490Z,101723.22
2024-01-08T18:18:23.483Z,101712.75
2024-01-08T18:20:51.436Z,101728.72
2024-01-08T18:23:19.209Z,101722.03
2024-01-08T18:25:46.241Z,101718.09
2024-01-08T18:28:13.072Z,101725.47
2024-01-08T18:30:40.214Z,101717.81
2024-01-08T18:33:07.209Z,101724.41
2024-01-08T18:35:35.459Z,101725.47
2024-01-08T18:38:02.392Z,101726.13
2024-01-08T18:40:29.404Z,101735.06
2024-01-08T18:42:56.138Z,101731.31
2024-01-08T18:45:22.943Z,101734.25
2024-01-08T18:47:49.779Z,101737.50
2024-01-08T18:50:16.631Z,101725.84
2024-01-08T18:52:43.659Z,101725.38
2024-01-08T18:55:10.445Z,101730.53
2024-01-08T18:57:37.148Z,101733.38
2024-01-08T19:00:06.202Z,101736.22
2024-01-08T19:02:34.563Z,101738.81
2024-01-08T19:05:01.563Z,101734.94
2024-01-08T19:07:28.797Z,101733.13
2024-01-08T19:09:56.006Z,101747.25
2024-01-08T19:12:22.756Z,101742.56
2024-01-08T19:14:50.034Z,101748.84
2024-01-08T19:17:16.885Z,101746.47
2024-01-08T19:19:43.636Z,101745.91
2024-01-08T19:22:10.412Z,101749.72
2024-01-08T19:24:37.237Z,101748.78
2024-01-08T19:27:04.474Z,101742.91
2024-01-08T19:29:31.386Z,101739.19
2024-01-08T19:31:58.313Z,101748.53
2024-01-08T19:34:25.646Z,101755.28
2024-01-08T19:36:52.456Z,101752.81
2024-01-08T19:39:20.514Z,101748.03
2024-01-08T19:41:48.275Z,101759.22
2024-01-08T19:44:15.186Z,101764.84
2024-01-08T19:46:42.246Z,101758.50
2024-01-08T19:49:17.631Z,101770.22
2024-01-08T19:51:51.754Z,101767.81
2024-01-08T19:54:18.703Z,101761.94
2024-01-08T19:56:46.359Z,101768.13
2024-01-08T19:59:13.240Z,101769.47
2024-01-08T20:01:41.313Z,101764.25
2024-01-08T20:04:08.077Z,101770.50
2024-01-08T20:06:34.970Z,101768.34
2024-01-08T20:09:01.826Z,101776.56
2024-01-08T20:11:28.653Z,101771.81
2024-01-08T20:13:55.647Z,101770.03
2024-01-08T20:16:22.427Z,101771.47
2024-01-08T20:18:50.890Z,101772.09
2024-01-08T20:21:18.453Z,101768.03
2024-01-08T20:23:47.971Z,101774.22
2024-01-08T20:26:15.278Z,101775.03
2024-01-08T20:28:42.114Z,101777.03
2024-01-08T20:31:10.321Z,101780.38
2024-01-08T20:33:39.728Z,101777.78
2024-01-08T20:36:06.805Z,101781.22
2024-01-08T20:38:33.627Z,101774.94
2024-01-08T20:41:00.930Z,101768.81
2024-01-08T20:43:27.703Z,101765.16
2024-01-08T20:45:54.689Z,101767.81
2024-01-08T20:48:21.477Z,101769.91
2024-01-08T20:50:48.380Z,101766.75
2024-01-08T20:53:15.239Z,101769.28
2024-01-08T20:55:42.077Z,101773.59
2024-01-08T20:58:08.792Z,101763.88
2024-01-08T21:00:35.768Z,101772.25
2024-01-08T21:03:02.767Z,101766.72
2024-01-08T21:05:30.231Z,101774.44
2024-01-08T21:07:58.616Z,101769.56
2024-01-08T21:10:25.363Z,101768.53
2024-01-08T21:12:52.891Z,101777.31
2024-01-08T21:15:19.995Z,101773.78
2024-01-08T21:17:46.965Z,101776.63
2024-01-08T21:20:13.955Z,101778.66
2024-01-08T21:22:42.221Z,101778.50
2024-01-08T21:25:09.275Z,101787.63
2024-01-08T21:27:36.043Z,101787.19
2024-01-08T21:32:45.092Z,101788.50
2024-01-08T21:35:11.953Z,101791.75
2024-01-08T21:37:39.259Z,101796.22
2024-01-08T21:40:06.592Z,101801.41
2024-01-08T21:42:33.960Z,101794.88
2024-01-08T21:45:00.832Z,101797.03
2024-01-08T21:47:28.342Z,101801.66
2024-01-08T21:49:58.401Z,101793.75
2024-01-08T21:52:25.217Z,101791.75
2024-01-08T21:54:52.823Z,101796.47
2024-01-08T21:57:19.625Z,101806.59
2024-01-08T21:59:46.492Z,101797.16
2024-01-08T22:02:13.255Z,101801.44
2024-01-08T22:04:40.010Z,101803.16
2024-01-08T22:07:07.066Z,101798.16
2024-01-08T22:09:33.884Z,101805.69
2024-01-08T22:12:00.913Z,101802.72
2024-01-08T22:14:27.727Z,101801.53
2024-01-08T22:16:54.541Z,101799.16
2024-01-08T22:19:21.774Z,101797.91
2024-01-08T22:21:48.694Z,101798.97
2024-01-08T22:24:15.742Z,101795.06
2024-01-08T22:26:42.594Z,101797.56
2024-01-08T22:29:10.422Z,101797.34
2024-01-08T22:31:37.370Z,101803.00
2024-01-08T22:34:05.089Z,101797.56
2024-01-08T22:36:32.279Z,101800.13
2024-01-08T22:38:59.084Z,101807.53
2024-01-08T22:41:26.128Z,101804.59
2024-01-08T22:43:54.100Z,101798.59
2024-01-08T22:46:26.617Z,101800.00
2024-01-08T22:48:53.514Z,101807.47
2024-01-08T22:51:22.168Z,101801.16
2024-01-08T22:53:49.292Z,101804.06
2024-01-08T22:56:16.122Z,101804.56
2024-01-08T23:01:23.815Z,101813.75
2024-01-08T23:03:51.250Z,101805.88
2024-01-08T23:06:19.903Z,101819.28
2024-01-08T23:08:46.917Z,101819.75
2024-01-08T23:11:13.725Z,101825.25
2024-01-08T23:13:40.467Z,101827.44
2024-01-08T23:16:07.205Z,101828.03
2024-01-08T23:18:34.323Z,101835.34
2024-01-08T23:21:01.157Z,101827.75
2024-01-08T23:23:27.952Z,101828.50
2024-01-08T23:25:55.500Z,101818.53
2024-01-08T23:28:24.253Z,101822.50
2024-01-08T23:30:51.068Z,101822.19
2024-01-08T23:33:19.755Z,101813.19
2024-01-08T23:35:48.843Z,101824.38
2024-01-08T23:38:16.076Z,101825.06
2024-01-08T23:40:42.999Z,101818.91
2024-01-08T23:43:11.021Z,101827.75
2024-01-08T23:45:38.093Z,101834.66
2024-01-08T23:48:05.151Z,101820.22
2024-01-08T23:50:32.097Z,101821.94
2024-01-08T23:52:58.909Z,101832.69
2024-01-08T23:55:25.646Z,101814.53
2024-01-08T23:57:52.455Z,101829.38
